Time;durP1;ratioP1;P1;durP2;ratioP2;P2;SDS_P1;SDS_P2;PMS_P1;PMS_P2;Temp;Humidity;BMP_temperature;BMP_pressure;BME280_temperature;BME280_humidity;BME280_pressure;Samples;Min_cycle;Max_cycle;Signal;HPM_P1;HPM_P2
2021/11/08 00:02:00;;;;;;;8.75;5.57;;;;;;;;;;4954150;28;20055;-71
2021/11/08 00:04:27;;;;;;;7.68;5.97;;;;;;;;;;4951949;29;20618;-71
2021/11/08 00:06:55;;;;;;;12.07;5.68;;;;;;;;;;4954109;28;20495;-71
2021/11/08 00:09:22;;;;;;;10.50;5.93;;;;;;;;;;4954094;28;20484;-71
2021/11/08 00:11:48;;;;;;;12.38;6.28;;;;;;;;;;4968781;28;20055;-71
2021/11/08 00:14:19;;;;;;;8.80;5.75;;;;;;;;;;4954106;28;20047;-71
2021/11/08 00:22:01;;;;;;;11.55;6.55;;;;;;;;;;4953388;28;20063;-71
2021/11/08 00:24:31;;;;;;;12.82;6.80;;;;;;;;;;4944957;28;20067;-72
2021/11/08 00:26:59;;;;;;;11.82;6.13;;;;;;;;;;4934813;29;20091;-71
2021/11/08 00:29:26;;;;;;;8.50;5.60;;;;;;;;;;4934778;29;20400;-71
2021/11/08 00:31:52;;;;;;;11.00;6.65;;;;;;;;;;4934665;29;20055;-71
2021/11/08 00:34:19;;;;;;;13.57;7.45;;;;;;;;;;4942594;29;20118;-71
2021/11/08 00:36:47;;;;;;;14.73;7.90;;;;;;;;;;4953828;28;20055;-71
2021/11/08 00:39:14;;;;;;;10.73;7.47;;;;;;;;;;4953823;28;20569;-71
2021/11/08 00:41:40;;;;;;;13.25;7.35;;;;;;;;;;4953651;28;20051;-72
2021/11/08 00:44:07;;;;;;;12.18;7.93;;;;;;;;;;4953582;28;20062;-71
2021/11/08 00:46:33;;;;;;;13.95;7.43;;;;;;;;;;4953828;28;20106;-71
2021/11/08 00:49:00;;;;;;;13.02;7.40;;;;;;;;;;4953795;28;20051;-71
2021/11/08 00:51:27;;;;;;;13.48;7.00;;;;;;;;;;4953359;28;20494;-72
2021/11/08 00:53:54;;;;;;;16.75;7.68;;;;;;;;;;4953787;28;20051;-71
2021/11/08 00:56:23;;;;;;;10.77;7.20;;;;;;;;;;4955185;28;20061;-71
2021/11/08 00:58:49;;;;;;;9.88;7.00;;;;;;;;;;4957683;29;20047;-72
2021/11/08 01:01:21;;;;;;;14.40;7.25;;;;;;;;;;4957499;29;20055;-71
2021/11/08 01:03:48;;;;;;;13.30;7.70;;;;;;;;;;4958305;28;20103;-72
2021/11/08 01:06:18;;;;;;;11.77;7.85;;;;;;;;;;4938845;29;20122;-71
2021/11/08 01:08:45;;;;;;;16.90;7.95;;;;;;;;;;4937344;29;20600;-71
2021/11/08 01:11:13;;;;;;;12.23;7.72;;;;;;;;;;4938271;29;20102;-71
2021/11/08 01:13:41;;;;;;;10.60;7.78;;;;;;;;;;4937085;29;20059;-72
2021/11/08 01:16:08;;;;;;;19.08;8.93;;;;;;;;;;4937206;29;20118;-71
2021/11/08 01:18:34;;;;;;;19.30;8.90;;;;;;;;;;4938389;29;20048;-70
2021/11/08 01:21:02;;;;;;;21.50;8.88;;;;;;;;;;4937011;29;20066;-71
2021/11/08 01:23:29;;;;;;;20.05;9.77;;;;;;;;;;4937862;29;20102;-71
2021/11/08 01:26:11;;;;;;;18.58;8.80;;;;;;;;;;4949668;29;20089;-70
2021/11/08 01:28:42;;;;;;;14.85;8.52;;;;;;;;;;4971986;28;20047;-72
2021/11/08 01:31:10;;;;;;;14.65;8.80;;;;;;;;;;4956877;28;20070;-71
2021/11/08 01:33:38;;;;;;;14.02;8.35;;;;;;;;;;4956342;28;20184;-71
2021/11/08 01:38:39;;;;;;;13.70;8.35;;;;;;;;;;4937913;29;20558;-71
2021/11/08 01:41:06;;;;;;;13.82;8.95;;;;;;;;;;4937801;29;20091;-72
2021/11/08 01:43:33;;;;;;;18.83;9.23;;;;;;;;;;4937658;29;20059;-70
2021/11/08 01:46:01;;;;;;;19.13;9.52;;;;;;;;;;4937733;29;20478;-71
2021/11/08 01:48:28;;;;;;;16.42;8.88;;;;;;;;;;4937530;29;20106;-71
2021/11/08 01:50:54;;;;;;;18.30;9.73;;;;;;;;;;4937443;29;20067;-71
2021/11/08 01:53:23;;;;;;;14.23;8.38;;;;;;;;;;4949304;29;20051;-71
2021/11/08 01:55:51;;;;;;;18.35;9.23;;;;;;;;;;4956835;28;20051;-71
2021/11/08 01:58:19;;;;;;;18.77;9.65;;;;;;;;;;4956617;28;20051;-70
2021/11/08 02:00:47;;;;;;;18.90;9.60;;;;;;;;;;4956576;28;20519;-72
2021/11/08 02:03:17;;;;;;;15.23;8.50;;;;;;;;;;4952861;29;20106;-71
2021/11/08 02:05:45;;;;;;;14.70;9.38;;;;;;;;;;4955415;29;20055;-71
2021/11/08 02:08:12;;;;;;;18.15;9.15;;;;;;;;;;4954920;28;20466;-71
2021/11/08 02:10:39;;;;;;;16.67;9.55;;;;;;;;;;4956095;28;20569;-71
2021/11/08 02:13:06;;;;;;;17.42;9.57;;;;;;;;;;4955952;28;20051;-71
2021/11/08 02:15:36;;;;;;;16.45;10.15;;;;;;;;;;4956091;28;20059;-71
2021/11/08 02:18:06;;;;;;;17.77;9.63;;;;;;;;;;4956241;28;20051;-71
2021/11/08 02:20:33;;;;;;;18.08;9.32;;;;;;;;;;4970953;28;20063;-71
2021/11/08 02:23:04;;;;;;;19.48;9.88;;;;;;;;;;4955611;28;20557;-71
2021/11/08 02:25:33;;;;;;;16.30;10.15;;;;;;;;;;4970651;28;20059;-71
2021/11/08 02:28:00;;;;;;;19.67;10.57;;;;;;;;;;4956103;28;20047;-72
2021/11/08 02:30:28;;;;;;;19.13;9.82;;;;;;;;;;4956146;28;20475;-72
2021/11/08 02:32:59;;;;;;;21.85;9.73;;;;;;;;;;4955976;28;20118;-71
2021/11/08 02:35:27;;;;;;;20.38;10.27;;;;;;;;;;4956040;28;20086;-72
2021/11/08 02:37:59;;;;;;;14.70;9.32;;;;;;;;;;4955906;28;20495;-71
2021/11/08 02:40:28;;;;;;;16.80;10.02;;;;;;;;;;4954729;29;20059;-71
2021/11/08 02:42:59;;;;;;;21.38;9.77;;;;;;;;;;4960163;28;20059;-71
2021/11/08 02:45:28;;;;;;;22.92;11.85;;;;;;;;;;4955828;28;20055;-72
2021/11/08 02:47:55;;;;;;;21.02;10.30;;;;;;;;;;4956192;28;20082;-71
2021/11/08 02:50:25;;;;;;;20.45;10.13;;;;;;;;;;4954822;29;20098;-71
2021/11/08 02:52:53;;;;;;;18.33;9.82;;;;;;;;;;4954902;28;20466;-72
2021/11/08 02:55:23;;;;;;;15.73;9.77;;;;;;;;;;4955039;28;20430;-71
2021/11/08 02:57:51;;;;;;;15.43;10.13;;;;;;;;;;4936481;28;20122;-71
2021/11/08 03:00:18;;;;;;;16.30;10.23;;;;;;;;;;4950732;29;20067;-72
2021/11/08 03:02:47;;;;;;;19.48;10.38;;;;;;;;;;4935824;29;20059;-72
2021/11/08 03:05:15;;;;;;;18.80;10.23;;;;;;;;;;4934581;29;20102;-71
2021/11/08 03:07:43;;;;;;;18.88;9.85;;;;;;;;;;4935444;29;20099;-72
2021/11/08 03:10:23;;;;;;;19.27;10.88;;;;;;;;;;4949699;29;20059;-71
2021/11/08 03:12:53;;;;;;;16.58;10.45;;;;;;;;;;4934964;29;20060;-72
2021/11/08 03:18:09;;;;;;;21.25;11.00;;;;;;;;;;4934768;29;20106;-71
2021/11/08 03:20:37;;;;;;;21.42;11.25;;;;;;;;;;4948683;29;20503;-71
2021/11/08 03:23:07;;;;;;;18.20;11.50;;;;;;;;;;4934779;29;20468;-71
2021/11/08 03:28:02;;;;;;;21.05;12.77;;;;;;;;;;4949455;29;20119;-71
2021/11/08 03:30:38;;;;;;;22.50;11.82;;;;;;;;;;4934801;29;20114;-71
2021/11/08 03:33:07;;;;;;;24.17;11.63;;;;;;;;;;4934579;29;20095;-71
2021/11/08 03:35:34;;;;;;;19.10;10.88;;;;;;;;;;4934932;29;20055;-71
2021/11/08 03:38:03;;;;;;;18.33;11.75;;;;;;;;;;4949411;29;20082;-71
2021/11/08 03:40:32;;;;;;;21.45;11.93;;;;;;;;;;4934849;29;20396;-71
2021/11/08 03:43:01;;;;;;;22.33;11.57;;;;;;;;;;4934427;29;20059;-71
2021/11/08 03:45:29;;;;;;;19.95;12.02;;;;;;;;;;4934630;29;20063;-72
2021/11/08 03:47:58;;;;;;;15.55;11.10;;;;;;;;;;4934498;29;20102;-71
2021/11/08 03:50:25;;;;;;;22.60;11.63;;;;;;;;;;4933383;29;20059;-71
2021/11/08 03:52:52;;;;;;;20.27;11.35;;;;;;;;;;4896065;29;1141488;-72
2021/11/08 03:55:19;;;;;;;20.92;12.60;;;;;;;;;;4934091;29;20051;-71
2021/11/08 03:57:48;;;;;;;21.65;11.10;;;;;;;;;;4966961;28;20502;-71
2021/11/08 04:00:16;;;;;;;22.20;11.63;;;;;;;;;;4953810;28;20051;-71
2021/11/08 04:02:43;;;;;;;24.00;12.57;;;;;;;;;;4953558;28;20530;-71
2021/11/08 04:05:11;;;;;;;18.10;11.82;;;;;;;;;;4954233;28;20059;-71
2021/11/08 04:07:38;;;;;;;21.75;11.50;;;;;;;;;;4937486;29;20056;-71
2021/11/08 04:10:06;;;;;;;21.58;12.80;;;;;;;;;;4954389;28;20439;-71
2021/11/08 04:12:34;;;;;;;25.25;12.48;;;;;;;;;;4953831;29;20059;-70
2021/11/08 04:15:06;;;;;;;20.42;12.18;;;;;;;;;;4954069;28;20051;-71
2021/11/08 04:17:33;;;;;;;20.90;10.90;;;;;;;;;;4952960;28;20105;-70
2021/11/08 04:20:01;;;;;;;19.45;11.55;;;;;;;;;;4953992;29;20055;-71
2021/11/08 04:22:27;;;;;;;20.92;10.95;;;;;;;;;;4953851;28;20228;-71
2021/11/08 04:24:54;;;;;;;19.75;11.32;;;;;;;;;;4954015;28;20055;-72
2021/11/08 04:27:21;;;;;;;24.08;13.27;;;;;;;;;;4953890;28;20103;-71
2021/11/08 04:29:48;;;;;;;19.80;12.30;;;;;;;;;;4952789;28;20122;-71
2021/11/08 04:32:15;;;;;;;19.73;11.60;;;;;;;;;;4953714;28;20101;-71
2021/11/08 04:37:21;;;;;;;19.02;10.10;;;;;;;;;;4942155;28;20106;-71
2021/11/08 04:40:03;;;;;;;16.95;10.98;;;;;;;;;;4934833;29;20467;-71
2021/11/08 04:42:53;;;;;;;18.42;9.95;;;;;;;;;;4934304;29;20060;-71
2021/11/08 05:31:51;;;;;;;16.75;9.77;;;;;;;;;;4933936;29;20506;-70
2021/11/08 05:34:18;;;;;;;16.85;10.10;;;;;;;;;;4934171;29;20055;-71
2021/11/08 05:36:44;;;;;;;20.15;10.70;;;;;;;;;;4941311;29;20103;-71
2021/11/08 05:39:11;;;;;;;19.23;9.68;;;;;;;;;;4953279;28;20102;-71
2021/11/08 05:41:40;;;;;;;16.75;9.45;;;;;;;;;;4953263;28;20057;-70
2021/11/08 05:44:07;;;;;;;15.75;9.15;;;;;;;;;;4971837;28;20121;-70
2021/11/08 05:46:35;;;;;;;18.70;9.90;;;;;;;;;;4966453;28;20058;-71
2021/11/08 05:49:01;;;;;;;19.73;9.95;;;;;;;;;;4937661;29;20048;-71
2021/11/08 05:51:28;;;;;;;17.80;11.23;;;;;;;;;;4937027;29;20546;-70
2021/11/08 05:53:55;;;;;;;22.90;13.02;;;;;;;;;;4952604;29;20412;-71
2021/11/08 06:48:47;;;;;;;20.23;11.05;;;;;;;;;;4955932;28;20459;-72
2021/11/08 06:50:58;;;;;;;19.48;11.93;;;;;;;;;;4955640;28;20119;-72
2021/11/08 06:53:28;;;;;;;25.17;12.68;;;;;;;;;;4954020;28;20059;-73
2021/11/08 06:55:56;;;;;;;23.63;14.20;;;;;;;;;;4955677;28;20059;-72
2021/11/08 06:58:24;;;;;;;24.77;13.13;;;;;;;;;;4954064;28;20118;-72
2021/11/08 07:00:51;;;;;;;22.83;13.07;;;;;;;;;;4953975;28;20059;-72
2021/11/08 07:03:17;;;;;;;24.45;13.10;;;;;;;;;;4953669;28;20055;-72
2021/11/08 07:05:44;;;;;;;22.42;13.00;;;;;;;;;;4953709;28;20558;-72
2021/11/08 07:08:11;;;;;;;23.67;12.45;;;;;;;;;;4953591;28;20408;-70
2021/11/08 07:10:38;;;;;;;21.40;12.98;;;;;;;;;;4953363;28;20106;-70
2021/11/08 07:13:10;;;;;;;27.13;13.67;;;;;;;;;;4953229;28;20126;-70
2021/11/08 07:15:37;;;;;;;24.73;12.85;;;;;;;;;;4953707;28;20291;-70
2021/11/08 07:18:03;;;;;;;23.98;12.80;;;;;;;;;;4953475;28;20102;-70
2021/11/08 07:20:31;;;;;;;20.05;11.75;;;;;;;;;;4953432;28;20059;-70
2021/11/08 07:22:58;;;;;;;23.67;12.02;;;;;;;;;;4953163;28;20066;-70
2021/11/08 07:25:25;;;;;;;21.42;12.57;;;;;;;;;;4952938;28;20118;-70
2021/11/08 07:27:52;;;;;;;26.27;13.73;;;;;;;;;;4953125;28;20054;-69
2021/11/08 07:30:23;;;;;;;24.98;12.60;;;;;;;;;;4953146;28;20092;-70
2021/11/08 07:32:49;;;;;;;25.90;14.60;;;;;;;;;;4952926;28;20098;-70
2021/11/08 07:35:16;;;;;;;21.85;14.00;;;;;;;;;;4953195;28;20114;-69
2021/11/08 07:37:43;;;;;;;24.48;15.48;;;;;;;;;;4952705;28;20110;-70
2021/11/08 07:40:10;;;;;;;26.98;14.23;;;;;;;;;;4953029;28;20470;-69
2021/11/08 07:42:37;;;;;;;30.55;15.57;;;;;;;;;;4952789;28;20090;-70
2021/11/08 07:45:04;;;;;;;29.20;15.93;;;;;;;;;;4952998;28;20126;-70
2021/11/08 07:47:30;;;;;;;26.98;15.63;;;;;;;;;;4944425;28;20134;-70
2021/11/08 07:49:57;;;;;;;30.52;17.02;;;;;;;;;;4933476;29;20056;-70
2021/11/08 07:52:24;;;;;;;33.30;18.20;;;;;;;;;;4933529;29;20063;-71
2021/11/08 07:54:50;;;;;;;33.00;16.40;;;;;;;;;;4934154;29;20167;-72
2021/11/08 07:57:17;;;;;;;40.47;18.23;;;;;;;;;;4934775;29;20507;-71
2021/11/08 07:59:45;;;;;;;38.15;17.67;;;;;;;;;;4935471;29;20051;-69
2021/11/08 08:02:11;;;;;;;33.85;17.33;;;;;;;;;;4935224;29;20057;-69
2021/11/08 08:04:39;;;;;;;36.17;18.17;;;;;;;;;;4945132;28;20055;-68
2021/11/08 08:07:06;;;;;;;34.83;18.15;;;;;;;;;;4953617;28;20043;-68
2021/11/08 08:09:33;;;;;;;34.42;19.05;;;;;;;;;;4962996;28;20071;-72
2021/11/08 08:12:00;;;;;;;35.03;18.40;;;;;;;;;;4957318;28;20143;-73
2021/11/08 08:14:27;;;;;;;29.23;17.13;;;;;;;;;;4961270;28;20050;-76
2021/11/08 08:16:54;;;;;;;35.97;17.13;;;;;;;;;;4948992;28;20057;-69
2021/11/08 08:19:21;;;;;;;29.25;15.93;;;;;;;;;;4962025;28;20095;-69
2021/11/08 08:21:48;;;;;;;35.42;15.85;;;;;;;;;;4961241;28;20043;-69
2021/11/08 08:24:14;;;;;;;25.98;15.40;;;;;;;;;;4960927;28;20051;-69
2021/11/08 08:26:42;;;;;;;27.38;14.90;;;;;;;;;;4961443;28;20102;-68
2021/11/08 08:29:09;;;;;;;28.83;14.65;;;;;;;;;;4958847;28;20050;-69
2021/11/08 08:31:41;;;;;;;31.05;15.43;;;;;;;;;;4957787;28;20053;-69
2021/11/08 08:34:10;;;;;;;30.27;14.95;;;;;;;;;;4957191;28;20051;-67
2021/11/08 08:36:38;;;;;;;29.58;14.88;;;;;;;;;;4959111;28;20047;-68
2021/11/08 08:39:06;;;;;;;21.30;14.13;;;;;;;;;;4955017;28;20495;-67
2021/11/08 08:41:34;;;;;;;27.10;15.60;;;;;;;;;;4962578;28;20102;-68
2021/11/08 08:44:00;;;;;;;23.00;13.80;;;;;;;;;;4959679;28;20055;-68
2021/11/08 08:46:27;;;;;;;24.88;14.25;;;;;;;;;;4948818;28;20055;-67
2021/11/08 08:48:54;;;;;;;26.48;14.13;;;;;;;;;;4953938;28;20101;-67
2021/11/08 08:51:21;;;;;;;24.27;14.52;;;;;;;;;;4958014;28;20050;-65
2021/11/08 08:53:48;;;;;;;24.25;14.07;;;;;;;;;;4961847;28;20117;-66
2021/11/08 08:56:19;;;;;;;24.23;13.15;;;;;;;;;;4955707;28;20937;-70
2021/11/08 08:58:46;;;;;;;27.73;12.75;;;;;;;;;;4960484;28;20051;-70
2021/11/08 09:01:13;;;;;;;19.48;11.40;;;;;;;;;;4961424;28;20110;-68
2021/11/08 09:03:40;;;;;;;19.63;13.85;;;;;;;;;;4961044;28;20072;-73
2021/11/08 09:06:06;;;;;;;18.88;12.35;;;;;;;;;;4959281;28;20660;-72
2021/11/08 09:08:35;;;;;;;27.45;13.57;;;;;;;;;;4960886;28;20047;-70
2021/11/08 09:11:02;;;;;;;24.05;12.95;;;;;;;;;;4975876;28;20046;-75
2021/11/08 09:13:29;;;;;;;20.45;11.48;;;;;;;;;;4977091;28;20047;-73
2021/11/08 09:15:56;;;;;;;22.10;12.32;;;;;;;;;;4958667;28;20051;-70
2021/11/08 09:18:23;;;;;;;23.98;11.95;;;;;;;;;;4963107;28;20405;-65
2021/11/08 09:20:50;;;;;;;24.77;12.43;;;;;;;;;;4962612;28;20094;-68
2021/11/08 09:23:16;;;;;;;17.30;10.45;;;;;;;;;;4963332;28;20055;-68
2021/11/08 09:25:43;;;;;;;20.83;11.20;;;;;;;;;;4962729;28;20051;-68
2021/11/08 09:28:10;;;;;;;25.02;12.75;;;;;;;;;;4963357;28;20054;-71
2021/11/08 09:30:41;;;;;;;20.52;11.88;;;;;;;;;;4948657;28;20047;-75
2021/11/08 09:33:09;;;;;;;20.15;12.02;;;;;;;;;;4979524;28;20051;-70
2021/11/08 09:35:44;;;;;;;14.13;7.78;;;;;;;;;;4968984;28;20074;-77
2021/11/08 09:38:11;;;;;;;17.98;8.07;;;;;;;;;;4960817;28;20058;-74
2021/11/08 09:40:39;;;;;;;19.20;10.00;;;;;;;;;;4962671;28;20058;-68
2021/11/08 09:43:13;;;;;;;16.05;8.30;;;;;;;;;;4961790;28;20098;-75
2021/11/08 09:45:41;;;;;;;15.57;9.20;;;;;;;;;;4951664;28;20062;-73
2021/11/08 09:48:11;;;;;;;21.83;10.40;;;;;;;;;;4962889;28;20047;-72
2021/11/08 09:50:41;;;;;;;20.92;10.38;;;;;;;;;;4958159;28;20044;-67
2021/11/08 09:53:07;;;;;;;17.63;9.57;;;;;;;;;;4961016;28;20450;-67
2021/11/08 09:55:34;;;;;;;16.58;9.15;;;;;;;;;;4961738;28;20051;-67
2021/11/08 09:58:02;;;;;;;19.27;9.77;;;;;;;;;;4963426;28;20054;-66
2021/11/08 10:00:35;;;;;;;16.48;10.35;;;;;;;;;;4961317;28;20055;-65
2021/11/08 10:03:08;;;;;;;18.50;9.60;;;;;;;;;;4963092;28;20062;-66
2021/11/08 10:05:39;;;;;;;19.13;8.20;;;;;;;;;;4965989;28;20416;-67
2021/11/08 10:08:30;;;;;;;16.42;8.27;;;;;;;;;;4961444;28;20518;-67
2021/11/08 10:10:59;;;;;;;21.98;8.82;;;;;;;;;;4957480;28;20463;-66
2021/11/08 10:13:28;;;;;;;22.60;11.82;;;;;;;;;;4962001;28;20113;-69
2021/11/08 10:16:01;;;;;;;20.15;10.73;;;;;;;;;;4961516;28;20098;-67
2021/11/08 10:18:29;;;;;;;16.83;9.93;;;;;;;;;;4969351;28;20562;-66
2021/11/08 10:21:10;;;;;;;18.27;9.80;;;;;;;;;;4962996;28;20043;-65
2021/11/08 10:23:42;;;;;;;19.45;7.93;;;;;;;;;;4960915;28;20051;-70
2021/11/08 10:26:12;;;;;;;24.35;7.60;;;;;;;;;;4964685;28;20146;-67
2021/11/08 10:28:40;;;;;;;15.40;7.93;;;;;;;;;;4966638;28;20108;-69
2021/11/08 10:31:11;;;;;;;18.05;9.18;;;;;;;;;;4968089;28;20402;-70
2021/11/08 10:33:39;;;;;;;25.08;9.98;;;;;;;;;;4972341;28;20053;-71
2021/11/08 10:36:15;;;;;;;21.85;9.38;;;;;;;;;;4966845;28;20129;-72
2021/11/08 10:38:43;;;;;;;18.95;9.30;;;;;;;;;;4975053;28;20222;-70
2021/11/08 10:41:20;;;;;;;23.25;9.57;;;;;;;;;;4981244;28;20054;-72
2021/11/08 10:43:50;;;;;;;20.10;8.80;;;;;;;;;;4970780;28;20047;-71
2021/11/08 10:46:21;;;;;;;21.05;8.82;;;;;;;;;;4978142;28;20486;-70
2021/11/08 10:48:57;;;;;;;14.32;7.75;;;;;;;;;;4976221;28;20031;-71
2021/11/08 10:51:28;;;;;;;17.90;8.30;;;;;;;;;;4987844;28;20051;-65
2021/11/08 10:53:56;;;;;;;17.70;8.40;;;;;;;;;;4989371;28;20058;-65
2021/11/08 10:56:38;;;;;;;16.15;7.57;;;;;;;;;;4990399;28;20555;-70
2021/11/08 10:59:11;;;;;;;14.73;7.15;;;;;;;;;;4989819;28;20027;-70
2021/11/08 11:01:47;;;;;;;17.85;7.93;;;;;;;;;;4988648;28;20031;-70
2021/11/08 11:04:15;;;;;;;13.45;6.88;;;;;;;;;;5016351;23;20062;-73
2021/11/08 11:06:49;;;;;;;14.13;4.78;;;;;;;;;;5021803;28;20061;-69
2021/11/08 11:09:21;;;;;;;17.35;5.97;;;;;;;;;;5023149;28;20420;-71
2021/11/08 11:12:09;;;;;;;15.07;5.30;;;;;;;;;;5021583;28;20046;-70
2021/11/08 11:14:42;;;;;;;18.08;6.00;;;;;;;;;;5027658;28;20073;-68
2021/11/08 11:17:12;;;;;;;12.13;5.55;;;;;;;;;;5022365;28;20045;-72
2021/11/08 11:19:40;;;;;;;13.13;5.00;;;;;;;;;;5044198;28;20046;-68
2021/11/08 11:22:10;;;;;;;16.42;4.85;;;;;;;;;;5021810;28;20054;-67
2021/11/08 11:24:46;;;;;;;17.88;4.07;;;;;;;;;;5017440;28;20100;-67
2021/11/08 11:27:33;;;;;;;9.02;3.38;;;;;;;;;;5007832;28;20049;-68
2021/11/08 11:30:09;;;;;;;14.93;5.55;;;;;;;;;;5022934;28;20045;-68
2021/11/08 11:32:36;;;;;;;13.82;4.22;;;;;;;;;;5021192;28;20053;-70
2021/11/08 11:35:16;;;;;;;14.05;5.20;;;;;;;;;;5016679;28;20057;-68
2021/11/08 11:37:56;;;;;;;16.15;4.25;;;;;;;;;;5020828;28;20400;-68
2021/11/08 11:40:23;;;;;;;12.30;3.97;;;;;;;;;;5018723;28;20401;-68
2021/11/08 11:42:55;;;;;;;14.95;3.05;;;;;;;;;;5018248;28;20045;-67
2021/11/08 11:45:22;;;;;;;17.95;4.03;;;;;;;;;;5016727;28;20049;-67
2021/11/08 11:48:01;;;;;;;13.93;3.20;;;;;;;;;;5017862;28;20049;-67
2021/11/08 11:50:28;;;;;;;13.73;3.53;;;;;;;;;;5004641;28;20082;-67
2021/11/08 11:52:55;;;;;;;14.02;4.05;;;;;;;;;;5017993;28;20053;-67
2021/11/08 11:55:22;;;;;;;13.85;4.10;;;;;;;;;;5018860;28;20093;-67
2021/11/08 11:57:49;;;;;;;15.55;3.83;;;;;;;;;;5023094;28;20049;-67
2021/11/08 12:00:16;;;;;;;15.57;4.63;;;;;;;;;;5017220;28;20161;-67
2021/11/08 12:02:42;;;;;;;9.98;3.45;;;;;;;;;;5018237;28;20107;-67
2021/11/08 12:05:09;;;;;;;14.27;3.97;;;;;;;;;;5020001;28;20136;-68
2021/11/08 12:07:36;;;;;;;11.05;3.95;;;;;;;;;;5019669;28;20057;-67
2021/11/08 12:10:05;;;;;;;9.00;3.55;;;;;;;;;;5016543;28;20046;-67
2021/11/08 12:12:31;;;;;;;11.77;3.55;;;;;;;;;;5017407;28;20049;-67
2021/11/08 12:15:07;;;;;;;16.02;3.90;;;;;;;;;;5016803;28;20467;-68
2021/11/08 12:17:40;;;;;;;12.93;3.47;;;;;;;;;;5016332;28;20070;-68
2021/11/08 12:20:11;;;;;;;15.30;3.45;;;;;;;;;;5018197;28;20052;-68
2021/11/08 12:22:39;;;;;;;14.20;3.45;;;;;;;;;;5016617;28;20058;-67
2021/11/08 12:25:16;;;;;;;10.27;3.40;;;;;;;;;;5020998;28;20103;-67
2021/11/08 12:27:52;;;;;;;10.75;3.13;;;;;;;;;;5019404;28;20096;-68
2021/11/08 12:30:26;;;;;;;8.55;3.10;;;;;;;;;;5032814;28;20053;-67
2021/11/08 12:32:56;;;;;;;10.45;3.78;;;;;;;;;;5019298;28;20566;-67
2021/11/08 12:35:35;;;;;;;11.63;3.20;;;;;;;;;;5017387;28;20564;-67
2021/11/08 12:38:21;;;;;;;13.43;4.25;;;;;;;;;;5016697;28;20516;-68
2021/11/08 12:40:48;;;;;;;9.35;3.10;;;;;;;;;;5026129;28;20046;-66
2021/11/08 12:43:26;;;;;;;12.38;3.42;;;;;;;;;;5020929;28;20065;-68
2021/11/08 12:45:53;;;;;;;10.10;2.72;;;;;;;;;;5018486;28;20049;-67
2021/11/08 12:48:20;;;;;;;11.60;3.20;;;;;;;;;;5018898;28;20084;-66
2021/11/08 12:50:53;;;;;;;12.20;3.17;;;;;;;;;;5020815;28;20081;-70
2021/11/08 12:53:24;;;;;;;9.82;2.90;;;;;;;;;;5012008;28;20566;-70
2021/11/08 12:55:50;;;;;;;8.43;2.67;;;;;;;;;;5021400;28;20081;-69
2021/11/08 12:58:17;;;;;;;10.98;3.25;;;;;;;;;;5017112;28;20050;-68
2021/11/08 13:00:51;;;;;;;12.55;4.25;;;;;;;;;;5019013;28;20451;-68
2021/11/08 13:03:30;;;;;;;12.68;2.92;;;;;;;;;;5009595;28;20045;-73
2021/11/08 13:05:58;;;;;;;15.32;3.50;;;;;;;;;;5020296;28;20053;-69
2021/11/08 13:08:27;;;;;;;14.38;3.58;;;;;;;;;;5019953;28;20046;-72
2021/11/08 13:11:09;;;;;;;12.48;3.20;;;;;;;;;;5000694;28;20042;-71
2021/11/08 13:13:43;;;;;;;11.93;3.35;;;;;;;;;;5019011;28;20046;-71
2021/11/08 13:16:11;;;;;;;18.88;3.85;;;;;;;;;;5020062;28;20100;-69
2021/11/08 13:18:42;;;;;;;8.77;3.38;;;;;;;;;;5016095;28;20053;-66
2021/11/08 13:21:26;;;;;;;10.05;3.50;;;;;;;;;;5018993;28;20052;-73
2021/11/08 13:23:54;;;;;;;5.95;3.03;;;;;;;;;;5019772;28;20042;-74
2021/11/08 13:26:22;;;;;;;11.20;3.13;;;;;;;;;;5019287;28;20103;-74
2021/11/08 13:28:49;;;;;;;8.10;3.10;;;;;;;;;;5023638;28;20053;-72
2021/11/08 13:31:16;;;;;;;8.98;3.58;;;;;;;;;;5016693;28;20053;-73
2021/11/08 13:33:54;;;;;;;12.18;3.25;;;;;;;;;;5017390;28;20045;-69
2021/11/08 13:36:21;;;;;;;14.48;4.22;;;;;;;;;;5004596;28;20049;-72
2021/11/08 13:38:51;;;;;;;14.55;4.82;;;;;;;;;;5012798;28;20180;-70
2021/11/08 13:41:35;;;;;;;13.70;4.03;;;;;;;;;;5019841;28;20394;-69
2021/11/08 13:44:10;;;;;;;13.32;5.03;;;;;;;;;;5016531;28;20319;-69
2021/11/08 13:46:47;;;;;;;14.18;5.55;;;;;;;;;;4999201;28;20064;-72
2021/11/08 13:49:20;;;;;;;10.18;5.05;;;;;;;;;;5001761;28;20520;-68
2021/11/08 13:51:55;;;;;;;13.32;5.90;;;;;;;;;;5016464;28;20045;-71
2021/11/08 13:54:29;;;;;;;15.88;6.00;;;;;;;;;;4998824;28;20073;-70
2021/11/08 13:57:04;;;;;;;17.88;6.68;;;;;;;;;;5019670;28;20050;-72
2021/11/08 13:59:34;;;;;;;13.30;5.38;;;;;;;;;;5016798;28;20050;-70
2021/11/08 14:02:05;;;;;;;13.05;5.07;;;;;;;;;;5014718;28;20512;-70
2021/11/08 14:04:36;;;;;;;15.82;5.68;;;;;;;;;;5022425;28;20096;-69
2021/11/08 14:07:05;;;;;;;15.88;6.60;;;;;;;;;;5013138;28;20063;-68
2021/11/08 14:09:33;;;;;;;22.23;7.30;;;;;;;;;;5025325;28;20041;-72
2021/11/08 14:12:03;;;;;;;19.08;6.35;;;;;;;;;;5020343;28;20084;-71
2021/11/08 14:14:35;;;;;;;15.68;6.45;;;;;;;;;;5003420;28;20444;-70
2021/11/08 14:17:12;;;;;;;13.50;5.70;;;;;;;;;;5022015;28;20504;-70
2021/11/08 14:19:40;;;;;;;15.68;5.68;;;;;;;;;;5020088;28;20492;-72
2021/11/08 14:22:07;;;;;;;11.07;5.18;;;;;;;;;;5005086;28;20041;-71
2021/11/08 14:24:42;;;;;;;12.48;5.68;;;;;;;;;;5018763;28;20416;-70
2021/11/08 14:27:14;;;;;;;14.02;4.90;;;;;;;;;;5018485;28;20049;-70
2021/11/08 14:29:42;;;;;;;13.35;4.60;;;;;;;;;;5022898;28;20096;-72
2021/11/08 14:32:17;;;;;;;11.82;4.75;;;;;;;;;;5018214;28;20046;-73
2021/11/08 14:34:51;;;;;;;12.25;4.97;;;;;;;;;;5021425;28;20041;-69
2021/11/08 14:37:24;;;;;;;9.82;4.55;;;;;;;;;;5020583;28;20132;-70
2021/11/08 14:39:51;;;;;;;11.65;4.82;;;;;;;;;;5021317;28;20096;-68
2021/11/08 14:42:20;;;;;;;11.25;3.97;;;;;;;;;;5019704;28;20490;-68
2021/11/08 14:44:50;;;;;;;9.80;4.82;;;;;;;;;;5018252;28;20046;-67
2021/11/08 14:47:31;;;;;;;10.02;3.72;;;;;;;;;;5022525;28;20107;-68
2021/11/08 14:50:05;;;;;;;11.38;4.00;;;;;;;;;;5020774;28;20464;-67
2021/11/08 14:52:35;;;;;;;13.90;5.10;;;;;;;;;;5017959;28;20108;-67
2021/11/08 14:55:08;;;;;;;10.75;3.78;;;;;;;;;;5023687;28;20045;-68
2021/11/08 14:57:36;;;;;;;14.45;4.10;;;;;;;;;;5021907;28;20071;-68
2021/11/08 15:00:11;;;;;;;10.80;3.50;;;;;;;;;;5019054;28;20053;-67
2021/11/08 15:02:39;;;;;;;13.07;3.92;;;;;;;;;;5020818;28;20045;-68
2021/11/08 15:05:12;;;;;;;14.43;3.90;;;;;;;;;;5017795;28;20566;-67
2021/11/08 15:07:41;;;;;;;9.25;3.47;;;;;;;;;;5021544;28;20524;-67
2021/11/08 15:10:23;;;;;;;10.13;3.53;;;;;;;;;;5019710;28;20455;-67
2021/11/08 15:12:52;;;;;;;10.85;3.83;;;;;;;;;;5013561;28;20045;-67
2021/11/08 15:15:22;;;;;;;9.50;4.28;;;;;;;;;;5021374;28;20103;-67
2021/11/08 15:17:55;;;;;;;7.47;4.22;;;;;;;;;;5019882;28;20084;-68
2021/11/08 15:20:33;;;;;;;10.38;4.10;;;;;;;;;;5022630;28;20088;-68
2021/11/08 15:23:06;;;;;;;11.88;3.15;;;;;;;;;;5019062;28;20045;-66
2021/11/08 15:25:33;;;;;;;;;;;;;;;;;;5018918;28;20057;-66
2021/11/08 15:28:13;;;;;;;8.30;3.30;;;;;;;;;;5019809;28;19987;-67
2021/11/08 15:30:45;;;;;;;7.57;3.33;;;;;;;;;;5018714;28;20053;-69
2021/11/08 15:33:43;;;;;;;10.23;4.07;;;;;;;;;;5022978;28;20128;-70
2021/11/08 15:36:22;;;;;;;8.82;3.40;;;;;;;;;;5017513;28;20500;-70
2021/11/08 15:38:49;;;;;;;9.52;3.53;;;;;;;;;;5018254;28;20046;-67
2021/11/08 15:41:16;;;;;;;8.88;3.55;;;;;;;;;;5018545;28;20406;-67
2021/11/08 15:43:44;;;;;;;12.63;4.00;;;;;;;;;;5016743;28;20119;-67
2021/11/08 15:46:14;;;;;;;5.63;3.42;;;;;;;;;;5001628;28;20060;-68
2021/11/08 15:48:46;;;;;;;11.80;4.35;;;;;;;;;;5018886;28;20050;-67
2021/11/08 15:51:14;;;;;;;11.75;3.58;;;;;;;;;;5018704;28;20566;-68
2021/11/08 15:53:41;;;;;;;9.35;4.90;;;;;;;;;;5018425;28;20041;-68
2021/11/08 15:56:08;;;;;;;10.13;4.00;;;;;;;;;;5000355;28;20045;-70
2021/11/08 15:58:35;;;;;;;9.82;4.07;;;;;;;;;;5018757;28;20459;-68
2021/11/08 16:01:06;;;;;;;9.55;4.20;;;;;;;;;;5018735;28;20050;-68
2021/11/08 16:03:34;;;;;;;12.40;4.10;;;;;;;;;;5018980;28;20056;-69
2021/11/08 16:06:00;;;;;;;14.73;4.72;;;;;;;;;;5016370;28;20084;-70
2021/11/08 16:08:30;;;;;;;13.68;4.50;;;;;;;;;;5023268;28;20567;-70
2021/11/08 16:10:57;;;;;;;12.75;4.22;;;;;;;;;;5019318;28;20050;-71
2021/11/08 16:13:24;;;;;;;9.60;4.93;;;;;;;;;;5017026;28;20709;-67
2021/11/08 16:15:53;;;;;;;9.77;4.20;;;;;;;;;;5018493;28;20061;-68
2021/11/08 16:18:21;;;;;;;8.23;4.05;;;;;;;;;;5016611;28;20085;-69
2021/11/08 16:20:50;;;;;;;9.63;4.38;;;;;;;;;;5018108;28;20132;-71
2021/11/08 16:23:18;;;;;;;11.98;3.85;;;;;;;;;;4999558;28;20084;-68
2021/11/08 16:25:45;;;;;;;10.07;4.22;;;;;;;;;;5018936;28;20053;-68
2021/11/08 16:28:12;;;;;;;11.75;4.47;;;;;;;;;;5016107;28;20080;-72
2021/11/08 16:30:39;;;;;;;11.85;4.63;;;;;;;;;;5022144;28;20046;-70
2021/11/08 16:33:38;;;;;;;9.10;4.22;;;;;;;;;;5017613;28;20077;-70
2021/11/08 16:36:05;;;;;;;8.20;4.13;;;;;;;;;;5013291;28;20049;-69